Time;durP1;ratioP1;P1;durP2;ratioP2;P2;SDS_P1;SDS_P2;PMS_P1;PMS_P2;Temp;Humidity;BMP_temperature;BMP_pressure;BME280_temperature;BME280_humidity;BME280_pressure;Samples;Min_cycle;Max_cycle;Signal;HPM_P1;HPM_P2
2022/08/03 00:01:04;;;;;;;3.27;3.03;;;20.40;99.90;;;;;;4992059;28;20227;-53
2022/08/03 00:03:31;;;;;;;3.17;2.93;;;20.50;99.90;;;;;;4980170;28;20255;-53
2022/08/03 00:05:58;;;;;;;3.10;2.90;;;20.40;99.90;;;;;;4972941;28;20621;-53
2022/08/03 00:08:25;;;;;;;3.10;2.90;;;20.30;99.90;;;;;;4971970;28;20274;-53
2022/08/03 00:10:52;;;;;;;3.03;2.83;;;20.20;99.90;;;;;;4970122;28;20303;-53
2022/08/03 00:13:20;;;;;;;3.93;2.93;;;20.20;99.90;;;;;;4968189;28;20208;-53
2022/08/03 00:15:47;;;;;;;2.53;2.43;;;20.30;99.90;;;;;;4978965;28;20227;-53
2022/08/03 00:18:14;;;;;;;2.57;2.37;;;20.30;99.90;;;;;;4971897;28;20193;-53
2022/08/03 00:20:41;;;;;;;4.10;2.70;;;20.20;99.90;;;;;;4976992;28;20208;-52
2022/08/03 00:23:08;;;;;;;2.67;2.57;;;20.20;99.90;;;;;;4976621;28;20200;-53
2022/08/03 00:25:35;;;;;;;4.60;2.87;;;20.20;99.90;;;;;;4970401;28;20212;-53
2022/08/03 00:28:03;;;;;;;3.30;2.80;;;20.20;99.90;;;;;;4969111;28;20216;-53
2022/08/03 00:30:32;;;;;;;2.60;2.50;;;20.10;99.90;;;;;;4979815;28;20300;-53
2022/08/03 00:33:00;;;;;;;3.17;3.07;;;20.10;99.90;;;;;;4976734;28;20334;-53
2022/08/03 00:35:27;;;;;;;2.60;2.50;;;20.00;99.90;;;;;;4975093;28;20197;-53
2022/08/03 00:37:54;;;;;;;3.80;3.47;;;20.00;99.90;;;;;;4978681;28;20256;-53
2022/08/03 00:40:21;;;;;;;4.23;2.67;;;20.00;99.90;;;;;;4980005;28;20737;-53
2022/08/03 00:42:50;;;;;;;3.20;3.00;;;20.00;99.90;;;;;;4974874;28;20277;-53
2022/08/03 00:45:18;;;;;;;2.20;2.20;;;20.00;99.90;;;;;;4983846;28;20641;-53
2022/08/03 00:47:46;;;;;;;2.87;2.67;;;20.00;99.90;;;;;;4990933;28;20263;-53
2022/08/03 00:50:14;;;;;;;2.33;2.23;;;20.00;99.90;;;;;;4980012;28;20204;-53
2022/08/03 00:52:41;;;;;;;3.50;2.83;;;20.00;99.90;;;;;;4981765;28;20216;-53
2022/08/03 00:55:09;;;;;;;2.50;2.43;;;20.00;99.90;;;;;;4983549;28;20196;-53
2022/08/03 00:57:37;;;;;;;3.00;2.80;;;19.90;99.90;;;;;;4991489;28;20670;-53
2022/08/03 01:00:05;;;;;;;2.77;2.57;;;20.00;99.90;;;;;;4978711;28;20235;-53
2022/08/03 01:02:33;;;;;;;2.77;2.57;;;20.00;99.90;;;;;;4980964;28;20225;-53
2022/08/03 01:05:01;;;;;;;2.30;2.20;;;20.00;99.90;;;;;;4983541;28;20274;-53
2022/08/03 01:07:40;;;;;;;3.07;2.90;;;19.90;99.90;;;;;;4991483;28;20252;-53
2022/08/03 01:10:17;;;;;;;2.83;2.70;;;19.90;99.90;;;;;;4991677;28;20207;-53
2022/08/03 01:12:52;;;;;;;3.20;3.00;;;19.90;99.90;;;;;;4967079;28;20223;-53
2022/08/03 01:15:25;;;;;;;2.87;2.77;;;20.00;99.90;;;;;;4967093;28;20287;-53
2022/08/03 01:17:57;;;;;;;2.90;2.70;;;19.90;99.90;;;;;;4976266;28;20421;-53
2022/08/03 01:20:32;;;;;;;2.87;2.77;;;19.90;99.90;;;;;;4991370;28;20232;-53
2022/08/03 01:23:44;;;;;;;3.67;3.47;;;19.90;99.90;;;;;;4978173;28;20297;-53
2022/08/03 01:26:35;;;;;;;2.83;2.73;;;19.70;99.90;;;;;;4978408;28;20250;-53
2022/08/03 01:29:17;;;;;;;2.97;2.87;;;19.60;99.90;;;;;;4991394;28;20701;-53
2022/08/03 01:31:53;;;;;;;3.20;2.87;;;19.50;99.90;;;;;;4988887;28;20291;-53
2022/08/03 01:34:22;;;;;;;2.90;2.80;;;19.50;99.90;;;;;;4978458;28;20205;-53
2022/08/03 01:36:53;;;;;;;3.27;3.17;;;19.50;99.90;;;;;;4971852;28;20224;-53
2022/08/03 01:39:22;;;;;;;3.80;2.47;;;19.50;99.90;;;;;;4971948;28;20216;-53
2022/08/03 01:41:57;;;;;;;3.50;3.20;;;19.50;99.90;;;;;;4974620;28;20227;-53
2022/08/03 01:44:25;;;;;;;3.43;3.33;;;19.40;99.90;;;;;;4979680;28;20200;-53
2022/08/03 01:46:54;;;;;;;3.60;3.27;;;19.50;99.90;;;;;;4975854;28;20550;-53
2022/08/03 01:49:21;;;;;;;3.20;3.10;;;19.50;99.90;;;;;;4974867;28;20629;-53
2022/08/03 01:51:49;;;;;;;3.53;3.30;;;19.40;99.90;;;;;;4977649;28;20216;-53
2022/08/03 01:54:17;;;;;;;4.37;4.07;;;19.40;99.90;;;;;;4982182;28;20487;-53
2022/08/03 01:56:45;;;;;;;4.10;3.80;;;19.30;99.90;;;;;;4985945;28;21202;-53
2022/08/03 01:59:16;;;;;;;3.40;3.20;;;19.30;99.90;;;;;;4994635;28;20268;-53
2022/08/03 02:01:44;;;;;;;5.73;3.70;;;19.20;99.90;;;;;;4990438;28;20781;-53
2022/08/03 02:04:14;;;;;;;3.07;2.97;;;19.20;99.90;;;;;;4986438;28;20218;-53
2022/08/03 02:06:43;;;;;;;4.00;3.37;;;19.20;99.90;;;;;;4985351;28;20292;-52
2022/08/03 02:09:11;;;;;;;3.20;3.00;;;19.20;99.90;;;;;;4982698;28;20694;-53
2022/08/03 02:11:39;;;;;;;3.37;3.20;;;19.20;99.90;;;;;;4976108;28;20729;-53
2022/08/03 02:14:06;;;;;;;2.73;2.63;;;19.10;99.90;;;;;;4972911;28;20292;-53
2022/08/03 02:16:36;;;;;;;4.97;3.33;;;19.10;99.90;;;;;;4974574;28;20231;-52
2022/08/03 02:19:06;;;;;;;3.20;3.10;;;19.10;99.90;;;;;;4974136;28;20248;-53
2022/08/03 02:21:37;;;;;;;3.97;3.70;;;19.10;99.90;;;;;;4981537;28;20235;-53
2022/08/03 02:24:05;;;;;;;3.10;2.70;;;19.20;99.90;;;;;;4981210;28;20254;-53
2022/08/03 02:26:35;;;;;;;3.50;3.20;;;19.20;99.90;;;;;;4994243;28;20211;-53
2022/08/03 02:29:11;;;;;;;3.77;3.57;;;19.20;99.90;;;;;;4985452;28;20247;-53
2022/08/03 02:31:39;;;;;;;3.10;2.97;;;19.20;99.90;;;;;;4978757;28;20228;-52
2022/08/03 02:34:11;;;;;;;3.47;3.27;;;19.10;99.90;;;;;;4974448;28;20255;-53
2022/08/03 02:36:42;;;;;;;2.87;2.67;;;19.10;99.90;;;;;;4986480;28;20203;-53
2022/08/03 02:39:13;;;;;;;3.07;2.97;;;19.10;99.90;;;;;;4988423;28;20196;-53
2022/08/03 02:41:45;;;;;;;3.07;2.87;;;19.20;99.90;;;;;;4975510;28;20229;-53
2022/08/03 02:44:13;;;;;;;3.20;3.10;;;19.10;99.90;;;;;;4982688;28;20638;-53
2022/08/03 02:46:43;;;;;;;3.93;3.70;;;19.20;99.90;;;;;;4981395;28;20274;-53
2022/08/03 02:49:13;;;;;;;3.83;2.83;;;19.20;99.90;;;;;;4988342;28;20223;-53
2022/08/03 02:51:43;;;;;;;3.57;3.37;;;19.10;99.90;;;;;;4990140;28;20253;-53
2022/08/03 02:54:11;;;;;;;3.53;3.40;;;19.10;99.90;;;;;;4985133;28;20251;-53
2022/08/03 02:56:41;;;;;;;3.10;2.83;;;19.10;99.90;;;;;;4982829;28;20204;-53
2022/08/03 02:59:09;;;;;;;3.70;3.40;;;19.10;99.90;;;;;;4981999;28;20193;-53
2022/08/03 03:01:38;;;;;;;3.17;2.97;;;19.10;99.90;;;;;;4977915;28;20224;-53
2022/08/03 03:04:06;;;;;;;3.17;3.07;;;19.10;99.90;;;;;;4979244;28;20688;-53
2022/08/03 03:06:33;;;;;;;4.00;3.50;;;19.00;99.90;;;;;;4975869;28;20298;-53
2022/08/03 03:09:02;;;;;;;3.67;3.47;;;19.00;99.90;;;;;;4973793;28;20232;-53
2022/08/03 03:11:29;;;;;;;3.20;3.10;;;19.00;99.90;;;;;;4979976;28;20273;-52
2022/08/03 03:13:57;;;;;;;3.93;3.77;;;18.90;99.90;;;;;;4967741;28;20200;-53
2022/08/03 03:16:26;;;;;;;4.67;4.07;;;18.90;99.90;;;;;;4989745;28;20270;-53
2022/08/03 03:18:54;;;;;;;4.20;3.97;;;18.80;99.90;;;;;;4992859;28;20203;-53
2022/08/03 03:21:23;;;;;;;4.37;3.97;;;18.80;99.90;;;;;;4992868;28;20298;-53
2022/08/03 03:23:52;;;;;;;4.83;4.40;;;18.80;99.90;;;;;;4974140;28;20200;-53
2022/08/03 03:26:20;;;;;;;4.57;4.23;;;18.70;99.90;;;;;;4980741;28;20662;-53
2022/08/03 03:28:49;;;;;;;6.07;4.00;;;18.70;99.90;;;;;;4992684;28;20263;-53
2022/08/03 03:31:16;;;;;;;4.00;3.60;;;18.70;99.90;;;;;;4987088;28;20702;-53
2022/08/03 03:33:47;;;;;;;4.47;4.17;;;18.60;99.90;;;;;;4980523;28;20208;-53
2022/08/03 03:36:14;;;;;;;3.90;3.60;;;18.60;99.90;;;;;;4982871;28;20604;-53
2022/08/03 03:38:41;;;;;;;3.97;3.77;;;18.60;99.90;;;;;;4984658;28;20195;-53
2022/08/03 03:41:08;;;;;;;3.73;3.50;;;18.70;99.90;;;;;;4992498;28;20784;-53
2022/08/03 03:43:36;;;;;;;3.50;3.30;;;18.70;99.90;;;;;;4981770;28;20203;-53
2022/08/03 03:46:04;;;;;;;4.10;3.80;;;18.70;99.90;;;;;;4986275;28;20196;-53
2022/08/03 03:48:31;;;;;;;5.10;3.50;;;18.60;99.90;;;;;;4980983;28;21001;-52
2022/08/03 03:50:59;;;;;;;5.97;3.70;;;18.60;99.90;;;;;;4975446;28;20638;-53
2022/08/03 03:53:26;;;;;;;3.07;2.97;;;18.60;99.90;;;;;;4980902;28;20201;-53
2022/08/03 03:55:53;;;;;;;5.13;3.70;;;18.60;99.90;;;;;;4973178;28;20205;-53
2022/08/03 03:58:21;;;;;;;3.63;3.43;;;18.60;99.90;;;;;;4972279;28;20606;-53
2022/08/03 04:00:49;;;;;;;3.63;3.43;;;18.60;99.90;;;;;;4979435;28;20235;-53
2022/08/03 04:03:17;;;;;;;3.53;3.33;;;18.60;99.90;;;;;;4980821;28;20200;-53
2022/08/03 04:11:17;;;;;;;3.23;3.13;;;18.60;99.90;;;;;;4972030;28;20656;-53
2022/08/03 04:13:50;;;;;;;3.50;3.30;;;18.70;99.90;;;;;;4980877;28;20212;-52
2022/08/03 04:16:23;;;;;;;3.97;2.70;;;18.80;99.90;;;;;;4979933;28;20200;-53
2022/08/03 04:18:55;;;;;;;3.43;3.23;;;18.80;99.90;;;;;;4968403;28;20611;-52
2022/08/03 04:21:24;;;;;;;2.90;2.80;;;18.70;99.90;;;;;;4968342;28;20231;-52
2022/08/03 04:23:53;;;;;;;4.07;3.63;;;18.80;99.90;;;;;;4962040;28;20205;-52
2022/08/03 04:26:24;;;;;;;3.63;3.43;;;18.80;99.90;;;;;;4952756;28;20269;-53
2022/08/03 04:28:52;;;;;;;3.43;3.23;;;18.70;99.90;;;;;;4965679;28;20589;-53
2022/08/03 04:31:23;;;;;;;3.07;2.83;;;18.70;99.90;;;;;;4974146;28;20277;-52
2022/08/03 04:33:52;;;;;;;3.17;2.80;;;18.80;99.90;;;;;;4971223;28;20608;-53
2022/08/03 04:36:23;;;;;;;3.70;3.50;;;18.80;99.90;;;;;;4966116;28;20246;-53
2022/08/03 04:38:58;;;;;;;3.13;3.03;;;18.90;99.90;;;;;;4961815;28;20747;-52
2022/08/03 04:41:27;;;;;;;2.90;2.80;;;19.00;99.90;;;;;;4967416;28;20257;-52
2022/08/03 04:43:56;;;;;;;2.87;2.77;;;19.00;99.90;;;;;;4966993;28;20583;-52
2022/08/03 04:46:28;;;;;;;3.40;3.10;;;19.10;99.90;;;;;;4964745;28;20200;-52
2022/08/03 04:48:56;;;;;;;3.57;3.47;;;19.30;99.90;;;;;;4971213;28;20235;-52
2022/08/03 04:51:23;;;;;;;3.87;3.67;;;19.40;99.90;;;;;;4969719;28;20227;-52
2022/08/03 04:53:51;;;;;;;3.30;3.10;;;19.60;99.90;;;;;;4962597;28;20205;-52
2022/08/03 04:56:18;;;;;;;2.97;2.87;;;19.80;99.90;;;;;;4961447;28;20216;-51
2022/08/03 04:58:47;;;;;;;3.10;3.00;;;20.10;99.90;;;;;;4967121;28;20265;-53
2022/08/03 05:01:15;;;;;;;3.70;3.43;;;20.60;99.90;;;;;;4963136;28;20571;-52
2022/08/03 05:03:47;;;;;;;3.03;2.93;;;21.20;99.90;;;;;;4964932;28;20205;-53
2022/08/03 05:06:14;;;;;;;2.80;2.70;;;21.90;99.90;;;;;;4962402;28;20560;-52
2022/08/03 05:08:43;;;;;;;3.43;2.50;;;22.60;99.90;;;;;;4952780;28;20216;-52
2022/08/03 05:11:10;;;;;;;2.83;2.73;;;23.20;99.90;;;;;;4957835;28;20228;-53
2022/08/03 05:13:37;;;;;;;2.73;2.63;;;23.90;99.90;;;;;;4959088;28;20215;-52
2022/08/03 05:16:05;;;;;;;6.00;3.03;;;24.60;99.90;;;;;;4963908;28;20212;-53
2022/08/03 05:18:32;;;;;;;2.63;2.33;;;25.00;99.90;;;;;;4956638;28;20216;-53
2022/08/03 05:21:00;;;;;;;3.90;2.60;;;25.60;99.90;;;;;;4967495;28;20737;-52
2022/08/03 05:23:27;;;;;;;2.53;2.43;;;26.30;99.90;;;;;;4974132;28;20662;-56
2022/08/03 05:25:55;;;;;;;2.67;2.57;;;26.60;99.90;;;;;;4962467;28;20228;-55
2022/08/03 05:28:22;;;;;;;2.23;2.13;;;26.90;99.90;;;;;;4964454;28;20233;-52
2022/08/03 05:30:49;;;;;;;2.83;2.63;;;27.50;99.90;;;;;;4965217;28;20234;-53
2022/08/03 05:33:16;;;;;;;1.90;1.80;;;27.90;99.90;;;;;;4968344;28;20205;-55
2022/08/03 05:35:43;;;;;;;2.37;2.27;;;28.20;99.90;;;;;;4960868;28;20208;-55
2022/08/03 05:38:11;;;;;;;2.50;2.40;;;28.50;99.90;;;;;;4969585;28;20209;-55
2022/08/03 05:40:38;;;;;;;2.20;2.10;;;28.90;99.90;;;;;;4976092;28;20243;-55
2022/08/03 05:43:05;;;;;;;2.03;2.03;;;29.00;99.90;;;;;;4965816;28;20197;-53
2022/08/03 05:45:32;;;;;;;2.63;2.42;;;29.40;99.90;;;;;;4983230;28;20212;-53
2022/08/03 05:48:00;;;;;;;2.03;2.03;;;29.60;99.90;;;;;;4986172;28;20526;-53
2022/08/03 05:50:27;;;;;;;2.17;2.00;;;29.70;99.90;;;;;;4985934;28;20220;-54
2022/08/03 05:52:57;;;;;;;2.28;2.17;;;29.90;99.90;;;;;;4964879;28;20212;-53
2022/08/03 05:55:26;;;;;;;2.45;2.08;;;30.20;99.90;;;;;;4978184;28;20220;-53
2022/08/03 05:57:53;;;;;;;2.88;2.60;;;30.40;99.90;;;;;;4988661;28;20215;-53
2022/08/03 06:00:20;;;;;;;2.10;1.98;;;30.00;99.90;;;;;;4973731;28;20656;-54
2022/08/03 06:02:47;;;;;;;3.10;3.00;;;30.20;99.90;;;;;;4967653;28;20223;-55
2022/08/03 06:05:14;;;;;;;1.83;1.80;;;30.60;99.90;;;;;;4969855;28;20232;-54
2022/08/03 06:07:41;;;;;;;2.00;2.00;;;30.90;99.90;;;;;;4976571;28;20656;-55
2022/08/03 06:10:09;;;;;;;1.63;1.52;;;31.00;99.90;;;;;;4959505;28;20252;-55
2022/08/03 06:12:40;;;;;;;3.72;2.33;;;31.40;99.90;;;;;;4961027;28;20221;-55
2022/08/03 06:15:08;;;;;;;1.90;1.80;;;31.40;99.90;;;;;;4958149;28;20248;-55
2022/08/03 06:17:35;;;;;;;2.03;1.88;;;31.40;99.90;;;;;;4954799;28;20284;-55
2022/08/03 06:20:02;;;;;;;1.58;1.58;;;31.50;99.90;;;;;;4955672;28;20268;-55
2022/08/03 06:22:29;;;;;;;2.20;1.98;;;31.40;99.90;;;;;;4959353;28;20240;-55
2022/08/03 06:24:57;;;;;;;1.80;1.70;;;31.50;99.90;;;;;;4960916;28;20625;-55
2022/08/03 06:27:24;;;;;;;2.25;2.05;;;32.00;99.90;;;;;;4955680;28;20201;-55
2022/08/03 06:29:52;;;;;;;2.25;2.10;;;32.40;99.90;;;;;;4968905;28;20231;-55
2022/08/03 06:32:21;;;;;;;1.85;1.85;;;32.00;99.90;;;;;;4962405;28;20217;-53
2022/08/03 06:34:49;;;;;;;1.77;1.77;;;32.30;99.90;;;;;;4963421;28;20663;-55
2022/08/03 06:37:16;;;;;;;1.58;1.58;;;32.20;99.90;;;;;;4958185;28;20697;-53
2022/08/03 06:39:43;;;;;;;3.28;2.38;;;32.60;99.90;;;;;;4961740;28;20260;-55
2022/08/03 06:42:11;;;;;;;2.03;2.03;;;32.40;99.70;;;;;;4967366;28;20698;-53
2022/08/03 06:44:38;;;;;;;2.10;2.00;;;32.60;99.90;;;;;;4967597;28;20094;-55
2022/08/03 06:47:07;;;;;;;2.85;2.28;;;33.10;99.90;;;;;;4969816;28;20282;-54
2022/08/03 06:49:35;;;;;;;1.98;1.88;;;32.80;99.90;;;;;;4961674;28;20307;-54
2022/08/03 06:52:02;;;;;;;2.88;2.03;;;33.00;99.40;;;;;;4967597;28;20223;-55
2022/08/03 06:54:29;;;;;;;3.40;1.50;;;33.40;99.60;;;;;;4967373;28;20598;-53
2022/08/03 06:56:56;;;;;;;2.13;2.03;;;33.00;99.90;;;;;;4968039;28;20196;-53
2022/08/03 06:59:23;;;;;;;2.33;2.05;;;33.40;99.90;;;;;;4971150;28;20197;-53
2022/08/03 07:01:50;;;;;;;1.88;1.88;;;33.10;98.10;;;;;;4970175;28;20234;-54
2022/08/03 07:04:18;;;;;;;3.00;2.08;;;32.80;98.60;;;;;;4966501;28;20205;-53
2022/08/03 07:06:45;;;;;;;3.53;2.00;;;32.80;98.10;;;;;;4976576;28;20608;-53
2022/08/03 07:09:12;;;;;;;2.10;2.00;;;33.10;98.70;;;;;;4980024;28;20216;-54
2022/08/03 07:11:39;;;;;;;2.30;2.10;;;33.40;98.50;;;;;;4976699;28;20224;-54
2022/08/03 07:14:06;;;;;;;1.98;1.73;;;33.30;99.30;;;;;;4972999;28;20201;-54
2022/08/03 07:16:33;;;;;;;2.70;2.53;;;33.50;98.60;;;;;;4982422;28;20201;-54
2022/08/03 07:19:00;;;;;;;3.95;2.30;;;33.40;98.90;;;;;;4992886;28;20236;-54
2022/08/03 07:21:28;;;;;;;2.20;2.10;;;33.70;99.50;;;;;;4981466;28;20236;-54
2022/08/03 07:23:55;;;;;;;1.95;1.95;;;33.80;99.10;;;;;;4977194;28;20200;-56
2022/08/03 07:26:22;;;;;;;1.98;1.95;;;33.80;99.50;;;;;;4992485;28;20208;-55
2022/08/03 07:28:49;;;;;;;2.03;1.92;;;33.60;99.30;;;;;;4981524;28;20666;-54
2022/08/03 07:31:16;;;;;;;2.50;2.40;;;33.40;98.70;;;;;;4977356;28;20228;-54
2022/08/03 07:33:43;;;;;;;1.80;1.80;;;33.20;99.90;;;;;;4975953;28;20204;-54
2022/08/03 07:36:10;;;;;;;2.20;2.00;;;33.90;97.80;;;;;;4985864;28;20262;-54
2022/08/03 07:38:38;;;;;;;2.60;2.38;;;34.00;98.10;;;;;;4981910;28;20259;-54
2022/08/03 07:41:05;;;;;;;1.80;1.80;;;34.10;98.10;;;;;;4976444;28;20221;-54
2022/08/03 07:43:32;;;;;;;3.80;2.10;;;34.50;97.60;;;;;;4974356;28;20555;-54
2022/08/03 07:45:59;;;;;;;2.15;2.05;;;34.60;96.90;;;;;;4992832;28;20254;-54
2022/08/03 07:48:26;;;;;;;1.92;1.85;;;35.10;97.40;;;;;;4992714;28;20669;-54
2022/08/03 07:50:53;;;;;;;2.25;2.25;;;35.20;95.00;;;;;;4985681;28;20666;-54
2022/08/03 07:53:20;;;;;;;2.08;1.98;;;35.50;94.60;;;;;;4969537;28;20631;-54
2022/08/03 07:55:48;;;;;;;2.10;2.10;;;35.00;93.40;;;;;;4969345;28;20740;-54
2022/08/03 07:58:16;;;;;;;2.15;2.15;;;35.00;93.50;;;;;;4983377;28;20688;-54
2022/08/03 08:00:44;;;;;;;1.75;1.75;;;35.30;95.60;;;;;;4981504;28;20674;-54
2022/08/03 08:03:12;;;;;;;2.50;2.40;;;35.40;94.00;;;;;;4967968;28;20255;-54
2022/08/03 08:05:39;;;;;;;2.10;2.10;;;35.50;94.50;;;;;;4978989;28;20204;-54
2022/08/03 08:08:07;;;;;;;2.03;2.00;;;35.70;92.60;;;;;;4973133;28;20259;-54
2022/08/03 08:10:34;;;;;;;2.60;2.40;;;35.40;93.30;;;;;;4962297;28;20224;-54
2022/08/03 08:13:03;;;;;;;2.15;1.92;;;35.60;93.20;;;;;;4960481;28;20276;-54
2022/08/03 08:15:30;;;;;;;2.70;2.50;;;35.50;94.30;;;;;;4961624;28;21533;-54
2022/08/03 08:17:59;;;;;;;1.73;1.63;;;35.50;93.70;;;;;;4955582;28;20224;-54
2022/08/03 08:20:30;;;;;;;2.08;2.08;;;35.50;95.50;;;;;;4952456;28;20199;-54
2022/08/03 08:22:58;;;;;;;2.45;2.28;;;35.70;94.10;;;;;;4961724;28;20227;-54
2022/08/03 08:25:25;;;;;;;2.10;2.00;;;35.80;93.20;;;;;;4957903;28;20201;-54
2022/08/03 08:27:52;;;;;;;2.30;2.10;;;35.90;92.20;;;;;;4965899;28;20205;-53
2022/08/03 08:30:23;;;;;;;2.47;2.28;;;36.00;91.80;;;;;;4970726;28;20212;-54
2022/08/03 08:32:51;;;;;;;3.22;2.50;;;36.10;92.70;;;;;;4952629;28;20221;-54
2022/08/03 08:35:19;;;;;;;2.33;2.22;;;35.80;92.20;;;;;;4964102;28;20205;-54
2022/08/03 08:37:46;;;;;;;2.60;2.40;;;36.00;92.10;;;;;;4964177;28;20197;-54
2022/08/03 08:40:13;;;;;;;1.98;1.88;;;36.00;94.20;;;;;;4952645;28;20228;-54
2022/08/03 08:42:42;;;;;;;2.45;2.25;;;35.90;93.80;;;;;;4952548;28;20280;-54
2022/08/03 08:45:10;;;;;;;2.42;2.42;;;35.60;92.10;;;;;;4965299;28;20665;-54
2022/08/03 08:47:40;;;;;;;4.00;2.20;;;35.50;93.90;;;;;;4972388;28;20545;-54
2022/08/03 08:50:09;;;;;;;2.20;2.10;;;34.90;93.70;;;;;;4960976;28;20217;-55
2022/08/03 08:52:40;;;;;;;2.50;2.30;;;35.50;93.40;;;;;;4960812;28;20220;-54
2022/08/03 08:55:11;;;;;;;3.03;3.03;;;35.10;94.50;;;;;;4970983;28;20196;-55
2022/08/03 08:57:44;;;;;;;2.60;2.40;;;34.90;93.60;;;;;;4972262;28;20552;-55
2022/08/03 09:00:13;;;;;;;2.70;2.38;;;34.90;94.40;;;;;;4957975;28;20240;-54
2022/08/03 09:02:42;;;;;;;2.85;2.60;;;35.20;95.10;;;;;;4977368;28;20248;-54
2022/08/03 09:05:11;;;;;;;4.50;2.45;;;35.10;94.00;;;;;;4970365;28;20209;-55
2022/08/03 09:07:38;;;;;;;2.22;2.03;;;34.70;95.20;;;;;;4975135;28;20548;-55
2022/08/03 09:10:07;;;;;;;2.40;2.20;;;35.20;94.60;;;;;;4961083;28;20340;-55
2022/08/03 09:12:39;;;;;;;3.22;2.20;;;35.30;95.00;;;;;;4965278;28;20230;-55
2022/08/03 09:15:22;;;;;;;2.53;2.42;;;35.70;95.70;;;;;;4987483;28;20196;-55
2022/08/03 09:17:53;;;;;;;2.35;2.25;;;36.00;93.30;;;;;;4985628;28;20303;-55
2022/08/03 09:20:22;;;;;;;2.65;2.50;;;35.90;94.20;;;;;;4991187;28;20227;-55
2022/08/03 09:22:56;;;;;;;2.42;2.33;;;36.30;93.00;;;;;;4987540;28;20238;-55
2022/08/03 09:25:30;;;;;;;2.50;2.40;;;36.40;92.40;;;;;;4975599;28;20204;-54
2022/08/03 09:28:05;;;;;;;5.43;3.00;;;36.50;92.80;;;;;;4980327;28;20227;-55
2022/08/03 09:30:32;;;;;;;2.28;2.28;;;36.60;92.80;;;;;;4992946;28;20298;-55
2022/08/03 09:33:02;;;;;;;2.95;2.80;;;36.90;90.80;;;;;;4987855;28;20353;-55
2022/08/03 09:35:30;;;;;;;2.60;2.47;;;37.30;91.60;;;;;;4986954;28;20279;-55
2022/08/03 09:38:12;;;;;;;2.53;2.33;;;36.30;92.90;;;;;;4990460;28;20216;-54
2022/08/03 09:40:40;;;;;;;2.78;2.55;;;36.00;93.10;;;;;;4976757;28;20232;-56
2022/08/03 09:43:08;;;;;;;2.10;2.08;;;36.30;92.20;;;;;;4980176;28;20638;-54
2022/08/03 09:45:35;;;;;;;2.42;2.33;;;36.10;92.50;;;;;;4986733;28;20193;-54
2022/08/03 09:48:24;;;;;;;2.38;2.28;;;36.10;91.70;;;;;;4985052;28;20291;-55
2022/08/03 09:50:52;;;;;;;2.78;2.58;;;35.80;91.90;;;;;;4956000;28;20229;-54
2022/08/03 09:53:20;;;;;;;2.55;2.47;;;36.00;93.50;;;;;;4968854;28;20236;-54
2022/08/03 09:55:58;;;;;;;3.35;2.55;;;35.70;93.10;;;;;;4964137;28;20196;-54
2022/08/03 09:58:26;;;;;;;2.67;2.63;;;35.90;94.40;;;;;;4974430;28;20205;-54
2022/08/03 10:00:55;;;;;;;2.78;2.67;;;35.50;92.30;;;;;;4954973;28;20217;-54
2022/08/03 10:03:25;;;;;;;3.53;3.35;;;35.40;94.00;;;;;;4967619;28;20200;-55
2022/08/03 10:05:52;;;;;;;3.40;3.30;;;35.10;95.60;;;;;;4962547;28;20200;-54
2022/08/03 10:08:20;;;;;;;5.07;3.42;;;35.10;96.30;;;;;;4958870;28;20618;-54
2022/08/03 10:10:49;;;;;;;3.00;2.90;;;35.30;96.40;;;;;;4967957;28;20248;-54
2022/08/03 10:13:17;;;;;;;3.63;3.42;;;34.90;97.60;;;;;;4972149;28;20287;-54
2022/08/03 10:15:44;;;;;;;2.90;2.90;;;34.80;97.20;;;;;;4967539;28;21007;-54
2022/08/03 10:18:11;;;;;;;3.53;3.42;;;34.70;97.10;;;;;;4982194;28;20260;-54
2022/08/03 10:20:45;;;;;;;3.58;3.38;;;35.00;97.30;;;;;;4983369;28;20220;-54
2022/08/03 10:23:14;;;;;;;3.38;3.28;;;35.00;96.30;;;;;;4981682;28;20205;-54
2022/08/03 10:25:43;;;;;;;2.90;2.75;;;34.90;95.90;;;;;;4974464;28;20622;-54
2022/08/03 10:28:14;;;;;;;3.28;3.03;;;35.00;97.50;;;;;;4969907;28;20208;-53
2022/08/03 10:30:44;;;;;;;3.17;2.85;;;34.80;95.90;;;;;;4964092;28;20732;-54
2022/08/03 10:33:17;;;;;;;2.88;2.67;;;35.10;95.60;;;;;;4958931;28;20660;-54
2022/08/03 10:35:48;;;;;;;2.92;2.92;;;34.70;95.70;;;;;;4970363;28;20631;-54
2022/08/03 10:38:19;;;;;;;2.58;2.47;;;34.90;94.70;;;;;;4957391;28;20229;-54
2022/08/03 10:40:46;;;;;;;2.40;2.30;;;35.40;94.80;;;;;;4958822;28;20229;-54
2022/08/03 10:43:20;;;;;;;5.88;2.65;;;34.90;95.00;;;;;;4957754;28;20247;-54
2022/08/03 10:45:47;;;;;;;2.70;2.50;;;35.10;93.50;;;;;;4969469;28;20287;-54
2022/08/03 10:48:15;;;;;;;3.15;3.05;;;35.50;95.50;;;;;;4954519;28;20280;-56
2022/08/03 10:50:43;;;;;;;2.13;2.13;;;35.50;93.10;;;;;;4959399;28;20212;-55
2022/08/03 10:53:11;;;;;;;1.63;1.63;;;36.00;93.90;;;;;;4970147;28;20201;-56
2022/08/03 10:58:52;;;;;;;2.90;2.80;;;35.30;91.90;;;;;;4963520;28;20215;-56
2022/08/03 11:01:39;;;;;;;2.33;2.33;;;34.40;95.20;;;;;;4973494;28;20278;-55
2022/08/03 11:04:19;;;;;;;3.03;1.67;;;33.40;94.10;;;;;;4972051;28;20615;-55
2022/08/03 11:06:48;;;;;;;2.22;2.13;;;33.00;94.70;;;;;;4974783;28;20674;-55
2022/08/03 11:09:18;;;;;;;2.30;1.95;;;32.90;95.80;;;;;;4981698;28;20204;-56
2022/08/03 11:11:47;;;;;;;3.05;2.20;;;32.90;94.40;;;;;;4974158;28;20294;-55
2022/08/03 11:14:17;;;;;;;2.55;2.35;;;32.80;97.80;;;;;;4979531;28;20232;-55
2022/08/03 11:16:46;;;;;;;2.13;2.03;;;32.90;98.00;;;;;;4981652;28;20212;-56
2022/08/03 11:19:15;;;;;;;2.38;2.17;;;33.00;96.90;;;;;;4982565;28;20677;-56
2022/08/03 11:21:56;;;;;;;2.35;2.25;;;33.10;94.90;;;;;;4984731;28;20223;-55
2022/08/03 11:24:58;;;;;;;2.25;2.25;;;33.20;96.30;;;;;;4975667;28;20299;-55
2022/08/03 11:27:30;;;;;;;1.67;1.67;;;33.20;95.30;;;;;;4970817;28;20232;-55
2022/08/03 11:30:01;;;;;;;2.13;2.03;;;33.00;97.20;;;;;;4974567;28;20216;-55
2022/08/03 11:32:55;;;;;;;1.83;1.83;;;32.80;95.40;;;;;;4953543;28;20781;-55
2022/08/03 11:35:23;;;;;;;2.17;2.08;;;32.60;96.20;;;;;;4959451;28;20217;-55
2022/08/03 11:38:09;;;;;;;2.10;2.10;;;32.40;96.50;;;;;;4962944;28;20201;-55
2022/08/03 11:40:40;;;;;;;2.30;2.30;;;32.30;96.10;;;;;;4968249;28;20557;-55
2022/08/03 11:43:09;;;;;;;2.05;2.03;;;32.20;97.50;;;;;;4959145;28;20211;-55
2022/08/03 11:45:36;;;;;;;2.45;2.28;;;32.10;96.90;;;;;;4969329;28;20208;-55
2022/08/03 11:48:14;;;;;;;1.75;1.65;;;31.90;96.20;;;;;;4964974;28;20205;-55
2022/08/03 11:50:44;;;;;;;2.10;2.00;;;31.80;97.20;;;;;;4952890;28;20223;-55
2022/08/03 11:53:15;;;;;;;2.65;2.55;;;31.60;99.30;;;;;;4960060;28;20292;-55
2022/08/03 11:55:47;;;;;;;2.15;2.15;;;31.60;98.00;;;;;;4964320;28;20612;-56
2022/08/03 11:58:19;;;;;;;2.00;1.90;;;31.60;97.50;;;;;;4974742;28;20193;-55
2022/08/03 12:00:46;;;;;;;1.80;1.80;;;31.70;97.40;;;;;;4991768;28;20227;-56
2022/08/03 12:03:14;;;;;;;1.83;1.83;;;31.80;98.00;;;;;;4979153;28;20286;-56
2022/08/03 12:05:51;;;;;;;2.63;2.53;;;31.90;97.10;;;;;;4983226;28;20369;-56
2022/08/03 12:08:29;;;;;;;1.95;1.95;;;31.90;97.40;;;;;;4982198;28;20272;-56
2022/08/03 12:10:59;;;;;;;2.25;2.05;;;31.90;99.10;;;;;;4974065;28;20229;-55
2022/08/03 12:13:26;;;;;;;1.88;1.77;;;31.90;98.60;;;;;;4978158;28;20616;-56
2022/08/03 12:15:55;;;;;;;2.17;1.83;;;31.80;98.50;;;;;;4970840;28;20271;-55
2022/08/03 12:18:23;;;;;;;2.53;2.15;;;31.70;99.10;;;;;;4977446;28;20279;-56
2022/08/03 12:20:51;;;;;;;1.40;1.40;;;31.80;97.80;;;;;;4972576;28;20223;-55
2022/08/03 12:23:19;;;;;;;1.70;1.70;;;31.80;98.30;;;;;;4975662;28;20208;-56
2022/08/03 12:25:47;;;;;;;5.22;2.50;;;31.70;96.40;;;;;;4969674;28;20216;-56
2022/08/03 12:28:18;;;;;;;1.75;1.75;;;31.60;98.80;;;;;;4979438;28;20669;-56
2022/08/03 12:30:47;;;;;;;1.83;1.83;;;31.40;98.00;;;;;;4983576;28;20310;-56
2022/08/03 12:33:18;;;;;;;1.58;1.58;;;31.30;97.80;;;;;;4987936;28;20667;-55
2022/08/03 12:35:46;;;;;;;2.10;2.00;;;31.10;98.90;;;;;;4974381;28;20200;-56
2022/08/03 12:38:13;;;;;;;1.77;1.77;;;31.10;99.80;;;;;;4980203;28;20610;-56
2022/08/03 12:40:40;;;;;;;1.67;1.67;;;31.20;98.80;;;;;;4980256;28;20606;-56
2022/08/03 12:43:12;;;;;;;1.80;1.80;;;31.20;97.80;;;;;;4978468;28;20200;-55
2022/08/03 12:45:41;;;;;;;1.60;1.60;;;31.30;97.50;;;;;;4978402;28;20286;-56
2022/08/03 12:48:11;;;;;;;1.58;1.58;;;31.20;96.80;;;;;;4971068;28;21045;-56
2022/08/03 12:50:40;;;;;;;3.42;1.55;;;31.10;97.40;;;;;;4983199;28;20409;-56
2022/08/03 12:53:09;;;;;;;1.42;1.42;;;31.30;96.50;;;;;;4977552;28;20229;-55
2022/08/03 12:55:37;;;;;;;1.73;1.60;;;31.20;97.00;;;;;;4971349;28;20581;-56
2022/08/03 12:58:05;;;;;;;2.25;1.90;;;31.30;98.20;;;;;;4978910;28;20565;-56
2022/08/03 13:00:32;;;;;;;1.63;1.63;;;31.20;96.30;;;;;;4983539;28;20208;-56
2022/08/03 13:03:03;;;;;;;1.90;1.80;;;31.10;96.90;;;;;;4991051;28;20613;-56
2022/08/03 13:05:31;;;;;;;2.10;2.10;;;31.10;95.70;;;;;;4969736;28;20204;-56
2022/08/03 13:07:58;;;;;;;1.75;1.45;;;31.20;97.70;;;;;;4974757;28;20207;-55